sensor_id;sensor_type;location;lat;lon;timestamp;temperature;humidity
909;DHT22;441;51.192;6.788;2023-02-28T00:01:20;19.90;43.30
909;DHT22;441;51.192;6.788;2023-02-28T00:03:47;19.80;43.30
909;DHT22;441;51.192;6.788;2023-02-28T00:06:16;19.80;43.40
909;DHT22;441;51.192;6.788;2023-02-28T00:08:43;19.80;43.40
909;DHT22;441;51.192;6.788;2023-02-28T00:11:11;19.80;43.40
909;DHT22;441;51.192;6.788;2023-02-28T00:13:40;19.80;43.40
909;DHT22;441;51.192;6.788;2023-02-28T00:16:09;19.80;43.30
909;DHT22;441;51.192;6.788;2023-02-28T00:18:36;19.80;43.30
909;DHT22;441;51.192;6.788;2023-02-28T00:21:04;19.70;43.20
909;DHT22;441;51.192;6.788;2023-02-28T00:23:32;19.80;43.30
909;DHT22;441;51.192;6.788;2023-02-28T00:25:59;19.70;43.20
909;DHT22;441;51.192;6.788;2023-02-28T00:28:26;19.80;43.20
909;DHT22;441;51.192;6.788;2023-02-28T00:30:53;19.80;43.30
909;DHT22;441;51.192;6.788;2023-02-28T00:33:20;19.80;43.20
909;DHT22;441;51.192;6.788;2023-02-28T00:35:47;19.70;43.10
909;DHT22;441;51.192;6.788;2023-02-28T00:38:14;19.70;43.20
909;DHT22;441;51.192;6.788;2023-02-28T00:40:42;19.70;43.20
909;DHT22;441;51.192;6.788;2023-02-28T00:43:09;19.70;43.20
909;DHT22;441;51.192;6.788;2023-02-28T00:45:36;19.70;43.20
909;DHT22;441;51.192;6.788;2023-02-28T00:48:03;19.70;43.20
909;DHT22;441;51.192;6.788;2023-02-28T00:50:31;19.70;43.20
909;DHT22;441;51.192;6.788;2023-02-28T00:52:58;19.70;43.30
909;DHT22;441;51.192;6.788;2023-02-28T00:55:25;19.60;43.20
909;DHT22;441;51.192;6.788;2023-02-28T00:57:53;19.70;43.30
909;DHT22;441;51.192;6.788;2023-02-28T01:00:20;19.70;43.30
909;DHT22;441;51.192;6.788;2023-02-28T01:02:47;19.60;43.20
909;DHT22;441;51.192;6.788;2023-02-28T01:05:14;19.60;43.30
909;DHT22;441;51.192;6.788;2023-02-28T01:07:41;19.60;43.30
909;DHT22;441;51.192;6.788;2023-02-28T01:10:09;19.60;43.30
909;DHT22;441;51.192;6.788;2023-02-28T01:12:36;19.60;43.80
909;DHT22;441;51.192;6.788;2023-02-28T01:15:05;19.60;43.40
909;DHT22;441;51.192;6.788;2023-02-28T01:17:32;19.60;43.40
909;DHT22;441;51.192;6.788;2023-02-28T01:19:59;19.50;43.40
909;DHT22;441;51.192;6.788;2023-02-28T01:22:26;19.50;43.40
909;DHT22;441;51.192;6.788;2023-02-28T01:24:53;19.50;43.40
909;DHT22;441;51.192;6.788;2023-02-28T01:27:20;19.50;43.40
909;DHT22;441;51.192;6.788;2023-02-28T01:29:47;19.50;43.50
909;DHT22;441;51.192;6.788;2023-02-28T01:32:15;19.50;43.50
909;DHT22;441;51.192;6.788;2023-02-28T01:34:42;19.50;43.50
909;DHT22;441;51.192;6.788;2023-02-28T01:37:09;19.50;43.50
909;DHT22;441;51.192;6.788;2023-02-28T01:39:36;19.40;43.40
909;DHT22;441;51.192;6.788;2023-02-28T01:42:03;19.40;43.40
909;DHT22;441;51.192;6.788;2023-02-28T01:44:56;19.50;43.50
909;DHT22;441;51.192;6.788;2023-02-28T01:47:27;19.40;43.40
909;DHT22;441;51.192;6.788;2023-02-28T01:49:54;19.40;43.40
909;DHT22;441;51.192;6.788;2023-02-28T01:52:22;19.40;43.40
909;DHT22;441;51.192;6.788;2023-02-28T01:54:52;19.40;43.40
909;DHT22;441;51.192;6.788;2023-02-28T01:57:24;19.40;43.50
909;DHT22;441;51.192;6.788;2023-02-28T01:59:57;19.40;43.40
909;DHT22;441;51.192;6.788;2023-02-28T02:02:27;19.40;43.40
909;DHT22;441;51.192;6.788;2023-02-28T02:04:57;19.40;43.40
909;DHT22;441;51.192;6.788;2023-02-28T02:07:29;19.40;43.40
909;DHT22;441;51.192;6.788;2023-02-28T02:10:01;19.40;43.40
909;DHT22;441;51.192;6.788;2023-02-28T02:12:44;19.40;43.40
909;DHT22;441;51.192;6.788;2023-02-28T02:15:16;19.40;43.40
909;DHT22;441;51.192;6.788;2023-02-28T02:17:49;19.40;43.40
909;DHT22;441;51.192;6.788;2023-02-28T02:20:45;19.40;43.50
909;DHT22;441;51.192;6.788;2023-02-28T02:26:23;19.40;43.50
909;DHT22;441;51.192;6.788;2023-02-28T02:29:09;19.30;43.40
909;DHT22;441;51.192;6.788;2023-02-28T02:31:54;19.30;43.40
909;DHT22;441;51.192;6.788;2023-02-28T02:34:44;19.30;43.40
909;DHT22;441;51.192;6.788;2023-02-28T02:37:23;19.30;43.40
909;DHT22;441;51.192;6.788;2023-02-28T02:39:59;19.30;43.40
909;DHT22;441;51.192;6.788;2023-02-28T02:42:31;19.30;43.40
909;DHT22;441;51.192;6.788;2023-02-28T02:45:03;19.30;43.50
909;DHT22;441;51.192;6.788;2023-02-28T02:47:32;19.30;43.50
909;DHT22;441;51.192;6.788;2023-02-28T02:50:04;19.30;43.50
909;DHT22;441;51.192;6.788;2023-02-28T02:52:36;19.20;43.50
909;DHT22;441;51.192;6.788;2023-02-28T02:55:07;19.20;43.50
909;DHT22;441;51.192;6.788;2023-02-28T02:57:40;19.20;43.50
909;DHT22;441;51.192;6.788;2023-02-28T03:00:09;19.20;43.50
909;DHT22;441;51.192;6.788;2023-02-28T03:02:37;19.20;43.60
909;DHT22;441;51.192;6.788;2023-02-28T03:05:14;19.20;43.50
909;DHT22;441;51.192;6.788;2023-02-28T03:07:43;19.20;43.60
909;DHT22;441;51.192;6.788;2023-02-28T03:10:29;19.20;43.60
909;DHT22;441;51.192;6.788;2023-02-28T03:15:58;19.20;43.60
909;DHT22;441;51.192;6.788;2023-02-28T03:18:34;19.20;43.60
909;DHT22;441;51.192;6.788;2023-02-28T03:21:12;19.20;43.60
909;DHT22;441;51.192;6.788;2023-02-28T03:23:47;19.20;43.70
909;DHT22;441;51.192;6.788;2023-02-28T03:26:20;19.20;43.60
909;DHT22;441;51.192;6.788;2023-02-28T03:28:53;19.20;43.70
909;DHT22;441;51.192;6.788;2023-02-28T03:31:26;19.20;43.70
909;DHT22;441;51.192;6.788;2023-02-28T03:33:58;19.20;43.70
909;DHT22;441;51.192;6.788;2023-02-28T03:36:29;19.10;43.60
909;DHT22;441;51.192;6.788;2023-02-28T03:39:00;19.20;43.70
909;DHT22;441;51.192;6.788;2023-02-28T03:41:32;19.10;43.60
909;DHT22;441;51.192;6.788;2023-02-28T03:44:05;19.10;43.60
909;DHT22;441;51.192;6.788;2023-02-28T03:46:37;19.10;43.60
909;DHT22;441;51.192;6.788;2023-02-28T03:49:11;19.10;43.50
909;DHT22;441;51.192;6.788;2023-02-28T03:51:41;19.10;43.50
909;DHT22;441;51.192;6.788;2023-02-28T03:54:12;19.10;43.60
909;DHT22;441;51.192;6.788;2023-02-28T03:56:42;19.10;43.50
909;DHT22;441;51.192;6.788;2023-02-28T03:59:13;19.10;43.50
909;DHT22;441;51.192;6.788;2023-02-28T04:01:43;19.10;43.50
909;DHT22;441;51.192;6.788;2023-02-28T04:04:11;19.10;43.50
909;DHT22;441;51.192;6.788;2023-02-28T04:06:40;19.10;43.50
909;DHT22;441;51.192;6.788;2023-02-28T04:09:10;19.10;43.50
909;DHT22;441;51.192;6.788;2023-02-28T04:11:38;19.00;43.40
909;DHT22;441;51.192;6.788;2023-02-28T04:14:08;19.00;43.50
909;DHT22;441;51.192;6.788;2023-02-28T04:16:37;19.00;43.40
909;DHT22;441;51.192;6.788;2023-02-28T04:19:06;19.00;43.40
909;DHT22;441;51.192;6.788;2023-02-28T04:21:35;19.00;43.40
909;DHT22;441;51.192;6.788;2023-02-28T04:24:04;19.00;43.40
909;DHT22;441;51.192;6.788;2023-02-28T04:26:32;19.00;43.50
909;DHT22;441;51.192;6.788;2023-02-28T04:29:01;19.00;43.50
909;DHT22;441;51.192;6.788;2023-02-28T04:31:28;19.00;43.50
909;DHT22;441;51.192;6.788;2023-02-28T04:33:55;19.00;43.50
909;DHT22;441;51.192;6.788;2023-02-28T04:36:22;19.00;43.50
909;DHT22;441;51.192;6.788;2023-02-28T04:38:49;19.00;43.50
909;DHT22;441;51.192;6.788;2023-02-28T04:41:18;19.00;43.50
909;DHT22;441;51.192;6.788;2023-02-28T04:43:45;19.00;43.60
909;DHT22;441;51.192;6.788;2023-02-28T04:46:11;19.00;43.50
909;DHT22;441;51.192;6.788;2023-02-28T04:48:39;19.00;43.50
909;DHT22;441;51.192;6.788;2023-02-28T04:51:08;19.00;43.50
909;DHT22;441;51.192;6.788;2023-02-28T04:53:37;19.00;43.50
909;DHT22;441;51.192;6.788;2023-02-28T04:56:05;19.00;43.50
909;DHT22;441;51.192;6.788;2023-02-28T04:58:34;19.00;43.60
909;DHT22;441;51.192;6.788;2023-02-28T05:01:02;19.00;43.60
909;DHT22;441;51.192;6.788;2023-02-28T05:03:29;19.00;43.60
909;DHT22;441;51.192;6.788;2023-02-28T05:05:56;19.00;43.50
909;DHT22;441;51.192;6.788;2023-02-28T05:08:23;19.00;43.60
909;DHT22;441;51.192;6.788;2023-02-28T05:10:50;19.00;43.60
909;DHT22;441;51.192;6.788;2023-02-28T05:13:17;19.00;43.60
909;DHT22;441;51.192;6.788;2023-02-28T05:15:45;19.00;43.70
909;DHT22;441;51.192;6.788;2023-02-28T05:18:12;18.90;43.60
909;DHT22;441;51.192;6.788;2023-02-28T05:20:39;19.00;43.70
909;DHT22;441;51.192;6.788;2023-02-28T05:23:08;18.90;43.70
909;DHT22;441;51.192;6.788;2023-02-28T05:25:35;18.90;43.70
909;DHT22;441;51.192;6.788;2023-02-28T05:28:01;18.90;43.70
909;DHT22;441;51.192;6.788;2023-02-28T05:30:28;18.90;44.10
909;DHT22;441;51.192;6.788;2023-02-28T05:32:58;19.00;44.90
909;DHT22;441;51.192;6.788;2023-02-28T05:35:26;18.90;46.10
909;DHT22;441;51.192;6.788;2023-02-28T05:37:53;18.90;47.10
909;DHT22;441;51.192;6.788;2023-02-28T05:40:19;19.00;47.30
909;DHT22;441;51.192;6.788;2023-02-28T05:42:47;18.90;48.00
909;DHT22;441;51.192;6.788;2023-02-28T05:45:14;19.00;48.10
909;DHT22;441;51.192;6.788;2023-02-28T05:47:40;19.00;48.20
909;DHT22;441;51.192;6.788;2023-02-28T05:50:10;19.00;48.10
909;DHT22;441;51.192;6.788;2023-02-28T05:52:37;19.00;47.90
909;DHT22;441;51.192;6.788;2023-02-28T05:55:04;19.00;47.60
909;DHT22;441;51.192;6.788;2023-02-28T05:57:31;19.00;47.50
909;DHT22;441;51.192;6.788;2023-02-28T05:59:58;19.00;47.30
909;DHT22;441;51.192;6.788;2023-02-28T06:02:25;19.00;47.10
909;DHT22;441;51.192;6.788;2023-02-28T06:04:52;19.00;47.00
909;DHT22;441;51.192;6.788;2023-02-28T06:07:20;19.00;47.00
909;DHT22;441;51.192;6.788;2023-02-28T06:09:47;19.00;46.90
909;DHT22;441;51.192;6.788;2023-02-28T06:12:14;19.00;46.90
909;DHT22;441;51.192;6.788;2023-02-28T06:14:41;19.00;46.70
909;DHT22;441;51.192;6.788;2023-02-28T06:17:09;19.00;46.60
909;DHT22;441;51.192;6.788;2023-02-28T06:19:36;19.00;46.50
909;DHT22;441;51.192;6.788;2023-02-28T06:22:05;19.00;46.40
909;DHT22;441;51.192;6.788;2023-02-28T06:24:33;19.00;46.40
909;DHT22;441;51.192;6.788;2023-02-28T06:27:00;18.90;46.20
909;DHT22;441;51.192;6.788;2023-02-28T06:29:30;19.00;46.30
909;DHT22;441;51.192;6.788;2023-02-28T06:31:58;19.00;46.20
909;DHT22;441;51.192;6.788;2023-02-28T06:34:24;18.90;46.00
909;DHT22;441;51.192;6.788;2023-02-28T06:36:52;18.90;46.00
909;DHT22;441;51.192;6.788;2023-02-28T06:39:19;18.90;45.90
909;DHT22;441;51.192;6.788;2023-02-28T06:41:48;18.90;45.80
909;DHT22;441;51.192;6.788;2023-02-28T06:44:17;18.90;45.80
909;DHT22;441;51.192;6.788;2023-02-28T06:46:46;18.90;45.70
909;DHT22;441;51.192;6.788;2023-02-28T06:49:13;18.90;45.70
909;DHT22;441;51.192;6.788;2023-02-28T06:51:42;18.90;45.60
909;DHT22;441;51.192;6.788;2023-02-28T06:54:10;18.90;45.60
909;DHT22;441;51.192;6.788;2023-02-28T06:56:37;18.90;45.60
909;DHT22;441;51.192;6.788;2023-02-28T06:59:06;18.90;45.50
909;DHT22;441;51.192;6.788;2023-02-28T07:01:33;18.90;45.50
909;DHT22;441;51.192;6.788;2023-02-28T07:04:00;18.90;45.50
909;DHT22;441;51.192;6.788;2023-02-28T07:06:27;18.90;45.40
909;DHT22;441;51.192;6.788;2023-02-28T07:08:54;18.90;45.50
909;DHT22;441;51.192;6.788;2023-02-28T07:11:22;18.90;45.30
909;DHT22;441;51.192;6.788;2023-02-28T07:13:51;18.90;45.30
909;DHT22;441;51.192;6.788;2023-02-28T07:16:19;18.90;45.30
909;DHT22;441;51.192;6.788;2023-02-28T07:18:46;18.90;45.30
909;DHT22;441;51.192;6.788;2023-02-28T07:21:14;18.90;45.30
909;DHT22;441;51.192;6.788;2023-02-28T07:23:41;18.80;45.30
909;DHT22;441;51.192;6.788;2023-02-28T07:26:11;18.80;45.20
909;DHT22;441;51.192;6.788;2023-02-28T07:28:40;18.80;45.20
909;DHT22;441;51.192;6.788;2023-02-28T07:31:08;18.80;45.20
909;DHT22;441;51.192;6.788;2023-02-28T07:33:37;18.90;45.30
909;DHT22;441;51.192;6.788;2023-02-28T07:36:06;18.90;45.30
909;DHT22;441;51.192;6.788;2023-02-28T07:38:34;18.90;45.30
909;DHT22;441;51.192;6.788;2023-02-28T07:41:01;18.90;45.30
909;DHT22;441;51.192;6.788;2023-02-28T07:43:30;18.90;45.30
909;DHT22;441;51.192;6.788;2023-02-28T07:46:02;18.90;45.20
909;DHT22;441;51.192;6.788;2023-02-28T07:48:29;18.90;45.20
909;DHT22;441;51.192;6.788;2023-02-28T07:50:58;18.90;45.20
909;DHT22;441;51.192;6.788;2023-02-28T07:53:25;18.90;45.20
909;DHT22;441;51.192;6.788;2023-02-28T07:55:55;18.90;45.10
909;DHT22;441;51.192;6.788;2023-02-28T07:58:22;18.90;45.10
909;DHT22;441;51.192;6.788;2023-02-28T08:00:49;18.90;45.10
909;DHT22;441;51.192;6.788;2023-02-28T08:03:17;18.90;45.10
909;DHT22;441;51.192;6.788;2023-02-28T08:05:44;18.90;45.00
909;DHT22;441;51.192;6.788;2023-02-28T08:08:13;18.90;45.00
909;DHT22;441;51.192;6.788;2023-02-28T08:10:41;18.90;45.00
909;DHT22;441;51.192;6.788;2023-02-28T08:13:09;18.90;45.00
909;DHT22;441;51.192;6.788;2023-02-28T08:15:36;18.90;45.00
909;DHT22;441;51.192;6.788;2023-02-28T08:18:03;18.90;45.00
909;DHT22;441;51.192;6.788;2023-02-28T08:20:30;18.90;45.00
909;DHT22;441;51.192;6.788;2023-02-28T08:22:57;18.90;45.00
909;DHT22;441;51.192;6.788;2023-02-28T08:25:25;18.90;44.90
909;DHT22;441;51.192;6.788;2023-02-28T08:27:52;18.90;45.00
909;DHT22;441;51.192;6.788;2023-02-28T08:30:19;18.90;44.90
909;DHT22;441;51.192;6.788;2023-02-28T08:32:46;18.90;44.90
909;DHT22;441;51.192;6.788;2023-02-28T08:35:13;18.90;44.90
909;DHT22;441;51.192;6.788;2023-02-28T08:37:40;18.80;44.80
909;DHT22;441;51.192;6.788;2023-02-28T08:40:08;18.80;44.80
909;DHT22;441;51.192;6.788;2023-02-28T08:42:36;18.80;44.70
909;DHT22;441;51.192;6.788;2023-02-28T08:45:04;18.80;44.80
909;DHT22;441;51.192;6.788;2023-02-28T08:47:31;18.80;44.70
909;DHT22;441;51.192;6.788;2023-02-28T08:49:58;18.80;44.80
909;DHT22;441;51.192;6.788;2023-02-28T08:52:25;18.80;44.70
909;DHT22;441;51.192;6.788;2023-02-28T08:54:51;18.80;44.70
909;DHT22;441;51.192;6.788;2023-02-28T08:57:18;18.80;44.70
909;DHT22;441;51.192;6.788;2023-02-28T08:59:46;18.80;44.60
909;DHT22;441;51.192;6.788;2023-02-28T09:02:14;18.80;44.70
909;DHT22;441;51.192;6.788;2023-02-28T09:04:41;18.80;44.70
909;DHT22;441;51.192;6.788;2023-02-28T09:07:10;18.80;44.70
909;DHT22;441;51.192;6.788;2023-02-28T09:12:21;18.80;44.70
909;DHT22;441;51.192;6.788;2023-02-28T09:14:49;18.80;44.70
909;DHT22;441;51.192;6.788;2023-02-28T09:17:17;18.80;44.70
909;DHT22;441;51.192;6.788;2023-02-28T09:19:44;18.80;44.60
909;DHT22;441;51.192;6.788;2023-02-28T09:22:11;18.80;44.60
909;DHT22;441;51.192;6.788;2023-02-28T09:24:38;18.80;44.60
909;DHT22;441;51.192;6.788;2023-02-28T09:27:05;18.80;44.60
909;DHT22;441;51.192;6.788;2023-02-28T09:29:33;18.80;44.60
909;DHT22;441;51.192;6.788;2023-02-28T09:32:02;18.80;44.50
909;DHT22;441;51.192;6.788;2023-02-28T09:34:31;18.80;44.60
909;DHT22;441;51.192;6.788;2023-02-28T09:36:58;18.80;44.50
909;DHT22;441;51.192;6.788;2023-02-28T09:39:25;18.80;44.50
909;DHT22;441;51.192;6.788;2023-02-28T09:41:54;18.80;44.50
909;DHT22;441;51.192;6.788;2023-02-28T09:44:27;18.80;44.50
909;DHT22;441;51.192;6.788;2023-02-28T09:46:57;18.80;44.50
909;DHT22;441;51.192;6.788;2023-02-28T09:49:33;18.80;44.50
909;DHT22;441;51.192;6.788;2023-02-28T09:52:03;18.80;44.50
909;DHT22;441;51.192;6.788;2023-02-28T09:54:35;18.80;44.40
909;DHT22;441;51.192;6.788;2023-02-28T09:57:07;18.80;44.40
909;DHT22;441;51.192;6.788;2023-02-28T09:59:51;18.80;44.40
909;DHT22;441;51.192;6.788;2023-02-28T10:02:46;18.80;44.40
909;DHT22;441;51.192;6.788;2023-02-28T10:05:20;18.80;44.40
909;DHT22;441;51.192;6.788;2023-02-28T10:07:58;18.80;44.30
909;DHT22;441;51.192;6.788;2023-02-28T10:10:32;18.80;44.40
909;DHT22;441;51.192;6.788;2023-02-28T10:13:02;18.80;44.30
909;DHT22;441;51.192;6.788;2023-02-28T10:15:32;18.80;44.30
909;DHT22;441;51.192;6.788;2023-02-28T10:18:04;18.80;44.30
909;DHT22;441;51.192;6.788;2023-02-28T10:20:35;18.70;44.20
909;DHT22;441;51.192;6.788;2023-02-28T10:23:10;18.80;44.30
909;DHT22;441;51.192;6.788;2023-02-28T10:25:38;18.70;44.20
909;DHT22;441;51.192;6.788;2023-02-28T10:28:10;18.70;44.20
909;DHT22;441;51.192;6.788;2023-02-28T10:30:39;18.70;44.10
909;DHT22;441;51.192;6.788;2023-02-28T10:33:15;18.70;44.10
909;DHT22;441;51.192;6.788;2023-02-28T10:35:45;18.70;44.10
909;DHT22;441;51.192;6.788;2023-02-28T10:38:16;18.70;44.10
909;DHT22;441;51.192;6.788;2023-02-28T10:40:43;18.70;44.10
909;DHT22;441;51.192;6.788;2023-02-28T10:43:19;18.70;44.10
909;DHT22;441;51.192;6.788;2023-02-28T10:45:56;18.70;44.00
909;DHT22;441;51.192;6.788;2023-02-28T10:48:36;18.70;44.10
909;DHT22;441;51.192;6.788;2023-02-28T10:51:07;18.70;44.10
909;DHT22;441;51.192;6.788;2023-02-28T10:53:38;18.70;44.00
909;DHT22;441;51.192;6.788;2023-02-28T10:56:15;18.80;44.00
909;DHT22;441;51.192;6.788;2023-02-28T10:58:48;18.80;44.00
909;DHT22;441;51.192;6.788;2023-02-28T11:01:17;18.80;44.00
909;DHT22;441;51.192;6.788;2023-02-28T11:03:45;18.80;44.00
909;DHT22;441;51.192;6.788;2023-02-28T11:06:18;18.80;44.00
909;DHT22;441;51.192;6.788;2023-02-28T11:08:48;18.80;43.90
909;DHT22;441;51.192;6.788;2023-02-28T11:11:16;18.80;43.90
909;DHT22;441;51.192;6.788;2023-02-28T11:13:44;18.80;43.90
909;DHT22;441;51.192;6.788;2023-02-28T11:16:13;18.80;43.90
909;DHT22;441;51.192;6.788;2023-02-28T11:18:43;18.80;43.80
909;DHT22;441;51.192;6.788;2023-02-28T11:21:18;18.80;43.80
909;DHT22;441;51.192;6.788;2023-02-28T11:23:46;18.80;43.70
909;DHT22;441;51.192;6.788;2023-02-28T11:26:14;18.80;43.70
909;DHT22;441;51.192;6.788;2023-02-28T11:28:42;18.80;43.70
909;DHT22;441;51.192;6.788;2023-02-28T11:31:17;18.80;43.70
909;DHT22;441;51.192;6.788;2023-02-28T11:33:47;18.80;43.70
909;DHT22;441;51.192;6.788;2023-02-28T11:36:19;18.80;43.70
909;DHT22;441;51.192;6.788;2023-02-28T11:38:47;18.80;43.60
909;DHT22;441;51.192;6.788;2023-02-28T11:41:30;18.80;43.60
909;DHT22;441;51.192;6.788;2023-02-28T11:44:05;18.80;43.60
909;DHT22;441;51.192;6.788;2023-02-28T11:46:38;18.80;43.60
909;DHT22;441;51.192;6.788;2023-02-28T11:49:27;18.80;43.50
909;DHT22;441;51.192;6.788;2023-02-28T11:52:01;18.80;43.50
909;DHT22;441;51.192;6.788;2023-02-28T11:54:55;18.80;43.50
909;DHT22;441;51.192;6.788;2023-02-28T11:57:35;18.80;43.50
909;DHT22;441;51.192;6.788;2023-02-28T12:00:08;18.80;43.50
909;DHT22;441;51.192;6.788;2023-02-28T12:02:52;18.80;43.50
909;DHT22;441;51.192;6.788;2023-02-28T12:05:27;18.80;43.40
909;DHT22;441;51.192;6.788;2023-02-28T12:08:05;18.80;43.40
909;DHT22;441;51.192;6.788;2023-02-28T12:10:39;18.80;43.40
909;DHT22;441;51.192;6.788;2023-02-28T12:13:18;18.80;43.40
909;DHT22;441;51.192;6.788;2023-02-28T12:16:08;18.80;43.40
909;DHT22;441;51.192;6.788;2023-02-28T12:18:52;18.80;43.30
909;DHT22;441;51.192;6.788;2023-02-28T12:21:34;18.80;43.30
909;DHT22;441;51.192;6.788;2023-02-28T12:24:18;18.80;43.30
909;DHT22;441;51.192;6.788;2023-02-28T12:26:52;18.80;43.30
909;DHT22;441;51.192;6.788;2023-02-28T12:29:23;18.80;43.20
909;DHT22;441;51.192;6.788;2023-02-28T12:31:53;18.80;43.20
909;DHT22;441;51.192;6.788;2023-02-28T12:34:27;18.90;43.20
909;DHT22;441;51.192;6.788;2023-02-28T12:36:56;18.90;43.20
909;DHT22;441;51.192;6.788;2023-02-28T12:39:29;18.90;43.20
909;DHT22;441;51.192;6.788;2023-02-28T12:42:01;18.90;43.20
909;DHT22;441;51.192;6.788;2023-02-28T12:44:33;18.90;43.10
909;DHT22;441;51.192;6.788;2023-02-28T12:47:04;18.90;43.10
909;DHT22;441;51.192;6.788;2023-02-28T12:49:33;18.90;43.10
909;DHT22;441;51.192;6.788;2023-02-28T12:52:02;18.90;43.00
909;DHT22;441;51.192;6.788;2023-02-28T12:54:35;18.90;42.90
909;DHT22;441;51.192;6.788;2023-02-28T12:57:07;19.00;43.00
909;DHT22;441;51.192;6.788;2023-02-28T12:59:39;19.00;43.00
909;DHT22;441;51.192;6.788;2023-02-28T13:02:29;19.00;43.00
909;DHT22;441;51.192;6.788;2023-02-28T13:08:34;19.00;42.80
909;DHT22;441;51.192;6.788;2023-02-28T13:11:05;19.00;42.80
909;DHT22;441;51.192;6.788;2023-02-28T13:13:32;19.00;42.80
909;DHT22;441;51.192;6.788;2023-02-28T13:16:02;19.00;42.80
909;DHT22;441;51.192;6.788;2023-02-28T13:18:35;19.00;42.80
909;DHT22;441;51.192;6.788;2023-02-28T13:21:06;19.00;42.70
909;DHT22;441;51.192;6.788;2023-02-28T13:23:39;19.00;42.70
909;DHT22;441;51.192;6.788;2023-02-28T13:26:08;19.00;42.70
909;DHT22;441;51.192;6.788;2023-02-28T13:29:20;19.00;42.60
909;DHT22;441;51.192;6.788;2023-02-28T13:35:43;19.00;42.60
909;DHT22;441;51.192;6.788;2023-02-28T13:38:33;19.00;42.50
909;DHT22;441;51.192;6.788;2023-02-28T13:44:08;19.00;42.50
909;DHT22;441;51.192;6.788;2023-02-28T13:46:37;19.00;42.50
909;DHT22;441;51.192;6.788;2023-02-28T13:49:27;19.00;42.50
909;DHT22;441;51.192;6.788;2023-02-28T13:52:06;19.00;42.50
909;DHT22;441;51.192;6.788;2023-02-28T13:54:44;19.00;42.40
909;DHT22;441;51.192;6.788;2023-02-28T13:57:28;19.10;42.50
909;DHT22;441;51.192;6.788;2023-02-28T14:00:07;19.10;42.40
909;DHT22;441;51.192;6.788;2023-02-28T14:03:06;19.10;43.00
909;DHT22;441;51.192;6.788;2023-02-28T14:05:36;19.10;42.40
909;DHT22;441;51.192;6.788;2023-02-28T14:08:07;19.10;42.40
909;DHT22;441;51.192;6.788;2023-02-28T14:10:42;19.10;42.40
909;DHT22;441;51.192;6.788;2023-02-28T14:13:39;19.20;42.50
909;DHT22;441;51.192;6.788;2023-02-28T14:16:11;19.20;42.50
909;DHT22;441;51.192;6.788;2023-02-28T14:18:42;19.20;42.40
909;DHT22;441;51.192;6.788;2023-02-28T14:21:21;19.20;42.40
909;DHT22;441;51.192;6.788;2023-02-28T14:27:31;19.30;42.50
909;DHT22;441;51.192;6.788;2023-02-28T14:30:20;19.30;42.40
909;DHT22;441;51.192;6.788;2023-02-28T14:33:00;19.30;42.40
909;DHT22;441;51.192;6.788;2023-02-28T14:35:45;19.30;42.40
909;DHT22;441;51.192;6.788;2023-02-28T14:38:22;19.40;42.40
909;DHT22;441;51.192;6.788;2023-02-28T14:40:52;19.40;42.40
909;DHT22;441;51.192;6.788;2023-02-28T14:43:21;19.40;42.30
909;DHT22;441;51.192;6.788;2023-02-28T14:45:50;19.40;42.30
909;DHT22;441;51.192;6.788;2023-02-28T14:48:19;19.40;42.30
909;DHT22;441;51.192;6.788;2023-02-28T14:50:49;19.40;42.30
909;DHT22;441;51.192;6.788;2023-02-28T14:53:21;19.40;42.20
909;DHT22;441;51.192;6.788;2023-02-28T14:55:49;19.50;42.20
909;DHT22;441;51.192;6.788;2023-02-28T14:58:23;19.50;42.20
909;DHT22;441;51.192;6.788;2023-02-28T15:00:52;19.50;42.20
909;DHT22;441;51.192;6.788;2023-02-28T15:03:21;19.50;42.10
909;DHT22;441;51.192;6.788;2023-02-28T15:05:52;19.50;42.10
909;DHT22;441;51.192;6.788;2023-02-28T15:08:21;19.50;42.10
909;DHT22;441;51.192;6.788;2023-02-28T15:10:54;19.50;42.00
909;DHT22;441;51.192;6.788;2023-02-28T15:13:23;19.60;42.00
909;DHT22;441;51.192;6.788;2023-02-28T15:15:54;19.60;42.00
909;DHT22;441;51.192;6.788;2023-02-28T15:18:27;19.50;41.90
909;DHT22;441;51.192;6.788;2023-02-28T15:20:55;19.60;41.90
909;DHT22;441;51.192;6.788;2023-02-28T15:23:24;19.60;41.90
909;DHT22;441;51.192;6.788;2023-02-28T15:25:52;19.60;41.80
909;DHT22;441;51.192;6.788;2023-02-28T15:28:22;19.50;41.80
909;DHT22;441;51.192;6.788;2023-02-28T15:30:56;19.60;41.80
909;DHT22;441;51.192;6.788;2023-02-28T15:33:25;19.60;41.80
909;DHT22;441;51.192;6.788;2023-02-28T15:36:03;19.50;41.70
909;DHT22;441;51.192;6.788;2023-02-28T15:38:34;19.60;41.70
909;DHT22;441;51.192;6.788;2023-02-28T15:41:02;19.60;41.70
909;DHT22;441;51.192;6.788;2023-02-28T15:43:34;19.60;41.70
909;DHT22;441;51.192;6.788;2023-02-28T15:46:03;19.60;41.70
909;DHT22;441;51.192;6.788;2023-02-28T15:48:33;19.50;41.60
909;DHT22;441;51.192;6.788;2023-02-28T15:51:06;19.60;41.70
909;DHT22;441;51.192;6.788;2023-02-28T15:53:37;19.60;41.70
909;DHT22;441;51.192;6.788;2023-02-28T15:56:18;19.60;41.70
909;DHT22;441;51.192;6.788;2023-02-28T15:58:47;19.50;41.50
909;DHT22;441;51.192;6.788;2023-02-28T16:01:19;19.50;41.50
909;DHT22;441;51.192;6.788;2023-02-28T16:03:49;19.50;41.50
909;DHT22;441;51.192;6.788;2023-02-28T16:06:32;19.50;41.50
909;DHT22;441;51.192;6.788;2023-02-28T16:09:01;19.50;41.50
909;DHT22;441;51.192;6.788;2023-02-28T16:11:28;19.50;41.60
909;DHT22;441;51.192;6.788;2023-02-28T16:13:56;19.50;41.60
909;DHT22;441;51.192;6.788;2023-02-28T16:16:25;19.50;41.70
909;DHT22;441;51.192;6.788;2023-02-28T16:18:52;19.50;41.70
909;DHT22;441;51.192;6.788;2023-02-28T16:21:19;19.50;41.70
909;DHT22;441;51.192;6.788;2023-02-28T16:23:46;19.60;41.80
909;DHT22;441;51.192;6.788;2023-02-28T16:26:19;19.40;40.80
909;DHT22;441;51.192;6.788;2023-02-28T16:28:47;19.50;40.60
909;DHT22;441;51.192;6.788;2023-02-28T16:31:15;19.50;40.30
909;DHT22;441;51.192;6.788;2023-02-28T16:33:43;19.60;40.20
909;DHT22;441;51.192;6.788;2023-02-28T16:36:13;19.60;40.20
909;DHT22;441;51.192;6.788;2023-02-28T16:38:41;19.60;40.20
909;DHT22;441;51.192;6.788;2023-02-28T16:41:12;19.60;40.20
909;DHT22;441;51.192;6.788;2023-02-28T16:43:44;19.60;40.20
909;DHT22;441;51.192;6.788;2023-02-28T16:46:11;19.60;40.20
909;DHT22;441;51.192;6.788;2023-02-28T16:48:39;19.70;40.30
909;DHT22;441;51.192;6.788;2023-02-28T16:51:06;19.70;40.10
909;DHT22;441;51.192;6.788;2023-02-28T16:53:33;19.70;40.10
909;DHT22;441;51.192;6.788;2023-02-28T16:56:00;19.70;40.10
909;DHT22;441;51.192;6.788;2023-02-28T16:58:28;19.70;40.10
909;DHT22;441;51.192;6.788;2023-02-28T17:00:56;19.70;40.10
909;DHT22;441;51.192;6.788;2023-02-28T17:03:25;19.60;39.50
909;DHT22;441;51.192;6.788;2023-02-28T17:05:52;19.60;39.60
909;DHT22;441;51.192;6.788;2023-02-28T17:08:19;19.50;38.90
909;DHT22;441;51.192;6.788;2023-02-28T17:10:46;19.50;39.10
909;DHT22;441;51.192;6.788;2023-02-28T17:13:13;19.50;39.30
909;DHT22;441;51.192;6.788;2023-02-28T17:15:40;19.50;39.90
909;DHT22;441;51.192;6.788;2023-02-28T17:18:13;19.50;40.10
909;DHT22;441;51.192;6.788;2023-02-28T17:20:41;19.60;40.10